Time,TemperatureC,DewpointC,PressurehPa,WindDirection,WindDirectionDegrees,WindSpeedKMH,WindSpeedGustKMH,Humidity,HourlyPrecipMM,Conditions,Clouds,dailyrainMM,SolarRadiationWatts/m^2,UVIndex,SoftwareType,DateUTC
2020-01-17 00:00:00,-9.3,-10.5,999.9,NNE,27,11.3,16.1,91,0.0,,,0.0,,,n/a,2020-01-16T23:00:00Z
2020-01-17 00:10:00,-9.3,-10.5,999.9,NNE,30,11.3,16.1,91,0.0,,,0.0,,,n/a,2020-01-16T23:10:00Z
2020-01-17 00:20:00,-9.2,-10.4,1000.2,NE,35,11.3,16.1,91,0.0,,,0.0,,,n/a,2020-01-16T23:20:00Z
2020-01-17 00:30:00,-9.2,-10.4,1000.2,NE,36,9.7,14.5,91,0.0,,,0.0,,,n/a,2020-01-16T23:30:00Z
2020-01-17 00:40:00,-9.2,-10.4,1000.4,NE,40,9.7,12.9,91,0.0,,,0.0,,,n/a,2020-01-16T23:40:00Z
2020-01-17 00:50:00,-9.2,-10.4,1000.5,NE,43,9.7,14.5,91,0.0,,,0.0,,,n/a,2020-01-16T23:50:00Z
2020-01-17 01:00:00,-9.3,-10.7,1000.7,NE,49,4.8,9.7,90,0.0,,,0.0,,,n/a,2020-01-17T00:00:00Z
2020-01-17 01:10:00,-9.4,-10.7,1000.8,NE,45,8,19.3,91,0.0,,,0.0,,,n/a,2020-01-17T00:10:00Z
2020-01-17 01:20:00,-9.7,-10.8,1000.9,NE,47,8,8,91,0.0,,,0.0,,,n/a,2020-01-17T00:20:00Z
2020-01-17 01:30:00,-10.3,-11.6,1001.0,NE,49,4.8,8,90,0.0,,,0.0,,,n/a,2020-01-17T00:30:00Z
2020-01-17 01:40:00,-9.9,-11.1,1001.1,NE,34,3.2,8,91,0.0,,,0.0,,,n/a,2020-01-17T00:40:00Z
2020-01-17 01:50:00,-10.4,-11.7,1001.4,NE,49,4.8,8,90,0.0,,,0.0,,,n/a,2020-01-17T00:50:00Z
2020-01-17 02:00:00,-10.5,-11.7,1001.7,NNE,27,4.8,8,91,0.0,,,0.0,,,n/a,2020-01-17T01:00:00Z
2020-01-17 02:10:00,-10.4,-11.6,1001.7,NNE,20,1.6,4.8,91,0.0,,,0.0,,,n/a,2020-01-17T01:10:00Z
2020-01-17 02:20:00,-10.2,-11.3,1002.0,NNE,23,3.2,4.8,92,0.0,,,0.0,,,n/a,2020-01-17T01:20:00Z
2020-01-17 02:30:00,-10.4,-11.6,1002.0,NE,40,4.8,8,91,0.0,,,0.0,,,n/a,2020-01-17T01:30:00Z
2020-01-17 02:40:00,-10.5,-11.7,1002.2,NE,47,8,8,91,0.0,,,0.0,,,n/a,2020-01-17T01:40:00Z
2020-01-17 02:50:00,-10.6,-11.8,1002.5,NE,45,9.7,12.9,91,0.0,,,0.0,,,n/a,2020-01-17T01:50:00Z
2020-01-17 03:00:00,-11.8,-13.4,1002.9,NE,41,9.7,11.3,88,0.0,,,0.0,,,n/a,2020-01-17T02:00:00Z
2020-01-17 03:10:00,-12.4,-13.6,1003.0,ENE,61,11.3,16.1,91,0.0,,,0.0,,,n/a,2020-01-17T02:10:00Z
2020-01-17 03:20:00,-12.7,-13.7,1003.1,NE,48,4.8,14.5,92,0.0,,,0.0,,,n/a,2020-01-17T02:20:00Z
2020-01-17 03:30:00,-13.6,-14.9,1003.2,ENE,58,4.8,8,90,0.0,,,0.0,,,n/a,2020-01-17T02:30:00Z
2020-01-17 03:40:00,-12.2,-13.1,1003.4,NE,42,11.3,12.9,93,0.0,,,0.0,,,n/a,2020-01-17T02:40:00Z
2020-01-17 03:50:00,-11.1,-11.9,1003.6,NE,35,11.3,16.1,93,0.0,,,0.0,,,n/a,2020-01-17T02:50:00Z
2020-01-17 04:00:00,-12.6,-14,1003.7,ENE,70,8,12.9,89,0.0,,,0.0,,,n/a,2020-01-17T03:00:00Z
2020-01-17 04:10:00,-13.6,-15.1,1004.0,ENE,60,9.7,12.9,89,0.0,,,0.0,,,n/a,2020-01-17T03:10:00Z
2020-01-17 04:20:00,-13.1,-14.2,1004.0,NE,56,8,11.3,91,0.0,,,0.0,,,n/a,2020-01-17T03:20:00Z
2020-01-17 04:30:00,-12,-12.8,1004.5,NE,42,9.7,12.9,94,0.0,,,0.0,,,n/a,2020-01-17T03:30:00Z
2020-01-17 04:40:00,-13.3,-14.8,1004.7,ENE,68,8,12.9,89,0.0,,,0.0,,,n/a,2020-01-17T03:40:00Z
2020-01-17 04:50:00,-12.7,-13.7,1005.0,NE,56,9.7,12.9,92,0.0,,,0.0,,,n/a,2020-01-17T03:50:00Z
2020-01-17 05:00:00,-13.5,-14.8,1005.2,NE,53,8,11.3,90,0.0,,,0.0,,,n/a,2020-01-17T04:00:00Z
2020-01-17 05:10:00,-12.3,-13.3,1005.5,NE,53,9.7,12.9,92,0.0,,,0.0,,,n/a,2020-01-17T04:10:00Z
2020-01-17 05:20:00,-13.1,-14.3,1005.8,ENE,65,9.7,12.9,90,0.0,,,0.0,,,n/a,2020-01-17T04:20:00Z
2020-01-17 05:30:00,-13.3,-14.5,1005.8,NE,55,8,11.3,91,0.0,,,0.0,,,n/a,2020-01-17T04:30:00Z
2020-01-17 05:40:00,-13.3,-14.6,1006.0,ENE,68,9.7,12.9,90,0.0,,,0.0,,,n/a,2020-01-17T04:40:00Z
2020-01-17 05:50:00,-13.1,-14.3,1006.2,ENE,57,9.7,12.9,91,0.0,,,0.0,,,n/a,2020-01-17T04:50:00Z
2020-01-17 06:00:00,-12,-13,1006.3,NE,53,8,12.9,92,0.0,,,0.0,,,n/a,2020-01-17T05:00:00Z
2020-01-17 06:10:00,-11.7,-12.9,1006.4,ENE,59,8,11.3,91,0.0,,,0.0,,,n/a,2020-01-17T05:10:00Z
2020-01-17 06:20:00,-11.6,-12.7,1006.4,ENE,66,9.7,12.9,91,0.0,,,0.0,,,n/a,2020-01-17T05:20:00Z
2020-01-17 06:30:00,-11.4,-12.6,1006.3,NE,51,11.3,16.1,91,0.0,,,0.0,,,n/a,2020-01-17T05:30:00Z
2020-01-17 06:40:00,-11.3,-12.4,1006.7,NE,54,9.7,12.9,91,0.0,,,0.0,,,n/a,2020-01-17T05:40:00Z
2020-01-17 06:50:00,-11.2,-12.2,1006.8,NE,40,8,14.5,92,0.0,,,0.0,,,n/a,2020-01-17T05:50:00Z
2020-01-17 07:00:00,-11.2,-12.4,1007.0,NE,50,9.7,12.9,91,0.0,,,0.0,,,n/a,2020-01-17T06:00:00Z
2020-01-17 07:10:00,-10.9,-12.1,1007.4,NE,50,9.7,12.9,91,0.0,,,0.0,,,n/a,2020-01-17T06:10:00Z
2020-01-17 07:20:00,-10.8,-11.9,1007.6,NE,47,8,12.9,91,0.0,,,0.0,,,n/a,2020-01-17T06:20:00Z
2020-01-17 07:30:00,-9.6,-10.5,1007.7,NE,45,9.7,12.9,93,0.0,,,0.0,,,n/a,2020-01-17T06:30:00Z
2020-01-17 07:40:00,-10,-11.3,1007.9,ENE,59,8,12.9,90,0.0,,,0.0,,,n/a,2020-01-17T06:40:00Z
2020-01-17 07:50:00,-10,-11.2,1007.8,NE,51,9.7,12.9,91,0.0,,,0.0,,,n/a,2020-01-17T06:50:00Z
2020-01-17 08:00:00,-9.4,-10.7,1008.0,NE,56,9.7,12.9,91,0.0,,,0.0,,,n/a,2020-01-17T07:00:00Z
2020-01-17 08:10:00,-10,-11.3,1008.1,NE,56,9.7,12.9,90,0.0,,,0.0,,,n/a,2020-01-17T07:10:00Z
2020-01-17 08:20:00,-8.7,-9.9,1008.3,NE,50,11.3,14.5,91,0.0,,,0.0,,,n/a,2020-01-17T07:20:00Z
2020-01-17 08:30:00,-9.1,-10.4,1008.4,ENE,67,8,19.3,90,0.0,,,0.0,,,n/a,2020-01-17T07:30:00Z
2020-01-17 08:40:00,-9.3,-10.7,1008.4,NE,54,9.7,14.5,90,0.0,,,0.0,,,n/a,2020-01-17T07:40:00Z
2020-01-17 08:50:00,-8.8,-10.1,1008.8,NE,49,9.7,14.5,90,0.0,,,0.0,,,n/a,2020-01-17T07:50:00Z
2020-01-17 09:00:00,-8.5,-9.8,1008.8,NE,41,12.9,19.3,90,0.0,,,0.0,,,n/a,2020-01-17T08:00:00Z
2020-01-17 09:10:00,-7.8,-9.3,1008.9,NE,41,14.5,19.3,89,0.0,,,0.0,,,n/a,2020-01-17T08:10:00Z
2020-01-17 09:20:00,-7.6,-9.1,1008.8,NE,41,14.5,19.3,89,0.0,,,0.0,,,n/a,2020-01-17T08:20:00Z
2020-01-17 09:30:00,-7.6,-8.9,1008.9,NNE,29,14.5,20.9,90,0.0,,,0.0,,,n/a,2020-01-17T08:30:00Z
2020-01-17 09:40:00,-7.4,-8.9,1008.9,NNE,31,14.5,24.1,89,0.0,,,0.0,,,n/a,2020-01-17T08:40:00Z
2020-01-17 09:50:00,-7.1,-8.5,1009.3,NE,56,14.5,22.5,90,0.0,,,0.0,,,n/a,2020-01-17T08:50:00Z
2020-01-17 10:00:00,-6.9,-8.4,1009.4,ENE,61,14.5,24.1,89,0.0,,,0.0,,,n/a,2020-01-17T09:00:00Z
2020-01-17 10:10:00,-6.8,-8.5,1009.5,ENE,69,14.5,24.1,88,0.0,,,0.0,,,n/a,2020-01-17T09:10:00Z
2020-01-17 10:20:00,-6.8,-8.6,1009.6,East,80,16.1,27.4,87,0.0,,,0.0,,,n/a,2020-01-17T09:20:00Z
2020-01-17 10:30:00,-7,-8.7,1009.8,ENE,69,14.5,29,88,0.0,,,0.0,,,n/a,2020-01-17T09:30:00Z
2020-01-17 10:40:00,-6.8,-8.9,1009.8,East,79,16.1,32.2,85,0.0,,,0.0,,,n/a,2020-01-17T09:40:00Z
2020-01-17 10:50:00,-6.8,-8.9,1010.0,ENE,67,16.1,33.8,85,0.0,,,0.0,,,n/a,2020-01-17T09:50:00Z
2020-01-17 11:00:00,-7,-8.9,1010.0,ENE,67,19.3,24.1,86,0.0,,,0.0,,,n/a,2020-01-17T10:00:00Z
2020-01-17 11:10:00,-6.8,-8.9,1010.0,East,80,19.3,25.7,85,0.0,,,0.0,,,n/a,2020-01-17T10:10:00Z
2020-01-17 11:20:00,-7,-9.2,1010.0,ENE,69,14.5,27.4,84,0.0,,,0.0,,,n/a,2020-01-17T10:20:00Z
2020-01-17 11:30:00,-7,-9.2,1010.1,ENE,77,20.9,29,84,0.0,,,0.0,,,n/a,2020-01-17T10:30:00Z
2020-01-17 11:40:00,-7.2,-9.4,1010.3,ENE,75,16.1,30.6,84,0.0,,,0.0,,,n/a,2020-01-17T10:40:00Z
2020-01-17 11:50:00,-7.3,-9.6,1010.4,East,79,16.1,27.4,84,0.0,,,0.0,,,n/a,2020-01-17T10:50:00Z
2020-01-17 12:00:00,-7.6,-9.8,1010.6,East,84,14.5,25.7,84,0.0,,,0.0,,,n/a,2020-01-17T11:00:00Z
2020-01-17 12:10:00,-7.9,-10.2,1010.8,ENE,74,12.9,22.5,83,0.0,,,0.0,,,n/a,2020-01-17T11:10:00Z
2020-01-17 12:20:00,-7.8,-10.2,1010.7,ENE,67,14.5,24.1,83,0.0,,,0.0,,,n/a,2020-01-17T11:20:00Z
2020-01-17 12:30:00,-7.7,-10.1,1010.8,ENE,59,19.3,25.7,83,0.0,,,0.0,,,n/a,2020-01-17T11:30:00Z
2020-01-17 12:40:00,-7.2,-9.8,1010.8,East,85,24.1,38.6,82,0.0,,,0.0,,,n/a,2020-01-17T11:40:00Z
2020-01-17 12:50:00,-7.3,-9.9,1010.9,ENE,75,19.3,33.8,82,0.0,,,0.0,,,n/a,2020-01-17T11:50:00Z
2020-01-17 13:00:00,-7.6,-10.2,1010.9,ENE,67,16.1,32.2,82,0.0,,,0.0,,,n/a,2020-01-17T12:00:00Z
2020-01-17 13:10:00,-7.8,-10.1,1011.0,ENE,74,22.5,33.8,84,0.0,,,0.0,,,n/a,2020-01-17T12:10:00Z
2020-01-17 13:20:00,-7.8,-10.2,1011.0,ENE,78,19.3,35.4,83,0.0,,,0.0,,,n/a,2020-01-17T12:20:00Z
2020-01-17 13:30:00,-8.2,-9.4,1011.1,ENE,68,19.3,27.4,91,0.0,,,0.0,,,n/a,2020-01-17T12:30:00Z
2020-01-17 13:40:00,-8.3,-10.5,1011.2,ENE,70,22.5,32.2,84,0.0,,,0.0,,,n/a,2020-01-17T12:40:00Z